createdAt,value
2022-09-17T00:01:08.372Z,0.22
2022-09-17T00:03:36.093Z,0.40
2022-09-17T00:06:06.193Z,0.30
2022-09-17T00:08:34.723Z,0.20
2022-09-17T00:11:21.951Z,0.60
2022-09-17T00:13:50.299Z,0.20
2022-09-17T00:16:28.198Z,0.30
2022-09-17T00:18:56.030Z,0.30
2022-09-17T00:21:23.465Z,0.20
2022-09-17T00:23:54.987Z,0.13
2022-09-17T00:26:21.961Z,0.30
2022-09-17T00:28:53.503Z,0.38
2022-09-17T00:31:21.344Z,0.20
2022-09-17T00:33:49.281Z,0.40
2022-09-17T00:36:16.361Z,0.20
2022-09-17T00:38:43.716Z,0.20
2022-09-17T00:41:10.530Z,0.25
2022-09-17T00:43:39.607Z,0.35
2022-09-17T00:46:17.870Z,0.20
2022-09-17T00:48:45.507Z,0.28
2022-09-17T00:51:18.226Z,0.30
2022-09-17T00:53:45.212Z,0.20
2022-09-17T00:56:30.143Z,0.30
2022-09-17T00:58:57.059Z,0.50
2022-09-17T01:01:24.180Z,0.40
2022-09-17T01:03:51.209Z,0.25
2022-09-17T01:06:47.075Z,0.35
2022-09-17T01:09:22.297Z,0.32
2022-09-17T01:12:19.056Z,0.30
2022-09-17T01:14:57.864Z,0.30
2022-09-17T01:17:27.476Z,0.20
2022-09-17T01:20:23.243Z,0.20
2022-09-17T01:22:57.454Z,0.20
2022-09-17T01:25:47.076Z,0.20
2022-09-17T01:28:43.063Z,0.22
2022-09-17T01:31:15.711Z,0.20
2022-09-17T01:34:05.860Z,0.20
2022-09-17T01:36:41.783Z,0.30
2022-09-17T01:39:33.603Z,0.10
2022-09-17T01:42:19.157Z,0.30
2022-09-17T01:44:54.877Z,0.10
2022-09-17T01:47:50.264Z,0.20
2022-09-17T01:50:25.406Z,0.17
2022-09-17T01:52:55.945Z,0.28
2022-09-17T01:55:30.088Z,0.20
2022-09-17T01:58:03.824Z,0.22
2022-09-17T02:00:30.998Z,0.28
2022-09-17T02:03:08.491Z,0.28
2022-09-17T02:05:40.856Z,0.30
2022-09-17T02:08:26.554Z,0.28
2022-09-17T02:11:02.744Z,0.20
2022-09-17T02:13:37.887Z,0.20
2022-09-17T02:16:16.357Z,0.30
2022-09-17T02:19:07.102Z,0.30
2022-09-17T02:21:47.649Z,0.40
2022-09-17T02:24:24.707Z,0.20
2022-09-17T02:27:02.356Z,0.20
2022-09-17T02:29:35.450Z,0.20
2022-09-17T02:32:02.615Z,0.30
2022-09-17T02:34:30.168Z,0.20
2022-09-17T02:37:01.237Z,0.22
2022-09-17T02:39:28.631Z,0.30
2022-09-17T02:42:23.594Z,0.30
2022-09-17T02:45:14.510Z,0.30
2022-09-17T02:48:04.367Z,0.20
2022-09-17T02:50:53.347Z,0.20
2022-09-17T02:53:40.349Z,0.30
2022-09-17T02:56:40.186Z,0.30
2022-09-17T02:59:13.050Z,0.30
2022-09-17T03:01:48.507Z,0.20
2022-09-17T03:04:18.841Z,0.20
2022-09-17T03:06:47.413Z,0.30
2022-09-17T03:09:15.974Z,0.30
2022-09-17T03:11:42.991Z,0.30
2022-09-17T03:14:09.829Z,0.20
2022-09-17T03:16:36.870Z,0.30
2022-09-17T03:19:03.907Z,0.25
2022-09-17T03:21:31.385Z,0.30
2022-09-17T03:24:00.506Z,0.43
2022-09-17T03:26:27.990Z,0.63
2022-09-17T03:28:54.858Z,0.30
2022-09-17T03:31:21.842Z,0.30
2022-09-17T03:33:48.830Z,0.25
2022-09-17T03:36:16.056Z,0.30
2022-09-17T03:38:42.838Z,0.30
2022-09-17T03:41:09.740Z,0.30
2022-09-17T03:43:36.512Z,0.40
2022-09-17T03:46:03.940Z,0.30
2022-09-17T03:48:30.877Z,0.30
2022-09-17T03:50:57.670Z,0.50
2022-09-17T03:53:24.491Z,0.40
2022-09-17T03:55:51.332Z,0.20
2022-09-17T03:58:18.107Z,0.25
2022-09-17T04:00:45.353Z,0.20
2022-09-17T04:03:12.495Z,0.43
2022-09-17T04:05:39.333Z,0.35
2022-09-17T04:08:06.168Z,0.20
2022-09-17T04:10:32.942Z,0.30
2022-09-17T04:12:59.820Z,0.30
2022-09-17T04:15:26.674Z,0.30
2022-09-17T04:18:00.924Z,0.20
2022-09-17T04:20:27.955Z,0.30
2022-09-17T04:22:55.090Z,0.30
2022-09-17T04:25:21.928Z,0.35
2022-09-17T04:27:48.719Z,0.20
2022-09-17T04:30:16.277Z,0.20
2022-09-17T04:32:46.215Z,0.32
2022-09-17T04:35:13.436Z,0.30
2022-09-17T04:37:40.433Z,0.30
2022-09-17T04:40:08.400Z,0.20
2022-09-17T04:42:35.323Z,0.32
2022-09-17T04:45:02.133Z,0.20
2022-09-17T04:47:29.034Z,0.30
2022-09-17T04:49:55.861Z,0.25
2022-09-17T04:52:22.701Z,0.40
2022-09-17T04:54:49.507Z,0.20
2022-09-17T04:57:16.413Z,0.32
2022-09-17T04:59:43.264Z,0.30
2022-09-17T05:02:10.090Z,0.30
2022-09-17T05:04:36.961Z,0.20
2022-09-17T05:07:03.961Z,0.20
2022-09-17T05:09:30.775Z,0.30
2022-09-17T05:11:57.632Z,0.30
2022-09-17T05:14:24.385Z,0.28
2022-09-17T05:16:51.204Z,0.45
2022-09-17T05:19:18.102Z,0.20
2022-09-17T05:21:44.943Z,0.30
2022-09-17T05:24:11.731Z,0.30
2022-09-17T05:26:38.563Z,0.40
2022-09-17T05:29:05.443Z,0.22
2022-09-17T05:31:32.446Z,0.40
2022-09-17T05:33:59.452Z,0.40
2022-09-17T05:36:26.279Z,0.40
2022-09-17T05:38:53.113Z,0.25
2022-09-17T05:41:19.994Z,0.35
2022-09-17T05:43:46.845Z,0.50
2022-09-17T05:46:13.811Z,0.40
2022-09-17T05:48:40.707Z,0.50
2022-09-17T05:51:07.549Z,0.55
2022-09-17T05:53:34.393Z,0.50
2022-09-17T05:56:01.414Z,0.45
2022-09-17T05:58:28.944Z,0.55
2022-09-17T06:00:56.075Z,0.30
2022-09-17T06:03:23.078Z,0.32
2022-09-17T06:05:58.831Z,0.30
2022-09-17T06:08:27.850Z,0.30
2022-09-17T06:10:57.871Z,0.43
2022-09-17T06:13:27.136Z,0.40
2022-09-17T06:15:54.576Z,0.30
2022-09-17T06:18:21.695Z,0.43
2022-09-17T06:20:59.959Z,0.38
2022-09-17T06:23:27.271Z,0.57
2022-09-17T06:25:57.561Z,0.38
2022-09-17T06:28:25.416Z,0.60
2022-09-17T06:30:57.495Z,0.40
2022-09-17T06:33:24.488Z,0.40
2022-09-17T06:35:57.928Z,0.55
2022-09-17T06:38:24.828Z,0.40
2022-09-17T06:40:54.837Z,0.50
2022-09-17T06:43:22.486Z,0.73
2022-09-17T06:46:09.415Z,0.30
2022-09-17T06:48:37.949Z,0.30
2022-09-17T06:51:07.578Z,0.30
2022-09-17T06:53:37.003Z,0.40
2022-09-17T06:56:06.840Z,0.30
2022-09-17T06:58:37.406Z,0.40
2022-09-17T07:01:05.538Z,0.50
2022-09-17T07:03:33.452Z,0.40
2022-09-17T07:06:00.811Z,0.40
2022-09-17T07:08:27.772Z,0.30
2022-09-17T07:10:58.577Z,0.63
2022-09-17T07:13:26.059Z,0.40
2022-09-17T07:15:58.227Z,0.50
2022-09-17T07:18:25.666Z,0.40
2022-09-17T07:20:55.148Z,0.20
2022-09-17T07:23:27.889Z,0.60
2022-09-17T07:25:56.450Z,0.40
2022-09-17T07:28:24.378Z,0.30
2022-09-17T07:30:52.501Z,0.30
2022-09-17T07:33:24.749Z,0.40
2022-09-17T07:35:55.574Z,0.30
2022-09-17T07:38:23.400Z,0.40
2022-09-17T07:40:58.973Z,0.28
2022-09-17T07:43:27.272Z,0.30
2022-09-17T07:45:55.131Z,0.88
2022-09-17T07:48:22.004Z,0.45
2022-09-17T07:50:49.103Z,0.55
2022-09-17T07:53:16.609Z,0.68
2022-09-17T07:55:43.638Z,1.52
2022-09-17T07:58:10.566Z,0.70
2022-09-17T08:00:37.377Z,1.20
2022-09-17T08:03:04.431Z,0.90
2022-09-17T08:05:32.769Z,0.90
2022-09-17T08:07:59.702Z,1.67
2022-09-17T08:10:27.471Z,1.13
2022-09-17T08:12:58.619Z,1.08
2022-09-17T08:17:53.619Z,0.70
2022-09-17T08:20:20.987Z,1.42
2022-09-17T08:22:50.107Z,0.68
2022-09-17T08:25:17.478Z,1.17
2022-09-17T08:27:44.474Z,0.60
2022-09-17T08:30:11.988Z,0.65
2022-09-17T08:32:39.159Z,0.77
2022-09-17T08:35:06.526Z,0.73
2022-09-17T08:37:33.738Z,0.40
2022-09-17T08:40:00.708Z,0.88
2022-09-17T08:43:00.517Z,0.75
2022-09-17T08:45:28.198Z,0.50
2022-09-17T08:48:05.435Z,0.90
2022-09-17T08:50:39.332Z,0.70
2022-09-17T08:53:34.367Z,1.23
2022-09-17T08:56:09.849Z,0.60
2022-09-17T08:59:10.501Z,0.65
2022-09-17T09:01:52.992Z,0.53
2022-09-17T09:05:25.202Z,0.38
2022-09-17T09:07:57.427Z,0.60
2022-09-17T09:10:28.538Z,0.60
2022-09-17T09:15:30.653Z,0.38
2022-09-17T09:18:03.896Z,0.40
2022-09-17T09:20:48.764Z,0.40
2022-09-17T09:23:33.473Z,0.40
2022-09-17T09:26:21.762Z,0.40
2022-09-17T09:29:20.402Z,0.30
2022-09-17T09:32:02.535Z,0.22
2022-09-17T09:34:30.321Z,0.60
2022-09-17T09:37:14.459Z,0.20
2022-09-17T09:39:46.044Z,0.20
2022-09-17T09:42:37.012Z,0.75
2022-09-17T09:45:15.422Z,0.25
2022-09-17T09:48:13.927Z,0.35
2022-09-17T09:51:22.558Z,0.20
2022-09-17T09:54:33.748Z,0.15
2022-09-17T09:57:12.965Z,0.20
2022-09-17T09:59:41.755Z,0.40
2022-09-17T10:02:09.124Z,0.30
2022-09-17T10:04:36.331Z,0.20
2022-09-17T10:07:06.207Z,0.50
2022-09-17T10:09:37.362Z,0.22
2022-09-17T10:14:40.015Z,0.80
2022-09-17T10:17:23.396Z,0.98
2022-09-17T10:20:02.440Z,0.65
2022-09-17T10:22:34.955Z,0.40
2022-09-17T10:25:04.064Z,0.68
2022-09-17T10:27:31.402Z,0.30
2022-09-17T10:30:09.224Z,0.85
2022-09-17T10:32:36.145Z,0.40
2022-09-17T10:35:16.608Z,0.45
2022-09-17T10:37:44.922Z,0.50
2022-09-17T10:40:20.839Z,0.30
2022-09-17T10:42:49.650Z,0.22
2022-09-17T10:45:31.168Z,0.50
2022-09-17T10:48:00.459Z,0.50
2022-09-17T10:50:30.434Z,0.52
2022-09-17T10:53:04.583Z,0.30
2022-09-17T10:56:05.639Z,0.95
2022-09-17T10:58:52.584Z,0.45
2022-09-17T11:01:53.192Z,0.73
2022-09-17T11:04:35.023Z,0.53
2022-09-17T11:07:19.967Z,1.40
2022-09-17T11:10:08.497Z,0.80
2022-09-17T11:12:49.972Z,4.88
2022-09-17T11:15:41.832Z,8.00
2022-09-17T11:18:23.945Z,11.65
2022-09-17T11:21:30.177Z,12.85
2022-09-17T11:24:12.235Z,12.82
2022-09-17T11:26:41.861Z,12.05
2022-09-17T11:29:18.198Z,13.30
2022-09-17T11:32:26.206Z,13.50
2022-09-17T11:35:16.415Z,13.48
2022-09-17T11:38:03.530Z,15.30
2022-09-17T11:40:52.713Z,14.82
2022-09-17T11:43:28.331Z,14.85
2022-09-17T11:46:01.143Z,12.23
2022-09-17T11:48:39.973Z,11.60
2022-09-17T11:51:26.407Z,12.52
2022-09-17T11:54:05.656Z,11.60
2022-09-17T11:56:43.406Z,9.73
2022-09-17T11:59:32.319Z,10.60
2022-09-17T12:02:06.076Z,11.63
2022-09-17T12:04:45.918Z,10.77
2022-09-17T12:07:30.727Z,10.63
2022-09-17T12:10:43.318Z,8.52
2022-09-17T12:13:10.087Z,8.40
2022-09-17T12:15:40.855Z,9.48
2022-09-17T12:18:32.370Z,7.63
2022-09-17T12:21:02.909Z,6.50
2022-09-17T12:23:40.789Z,6.25
2022-09-17T12:26:49.355Z,7.05
2022-09-17T12:29:40.218Z,7.35
2022-09-17T12:32:31.813Z,5.90
2022-09-17T12:35:19.100Z,6.30
2022-09-17T12:38:24.477Z,6.75
2022-09-17T12:40:54.157Z,3.83
2022-09-17T12:43:45.251Z,4.03
2022-09-17T12:46:45.629Z,3.80
2022-09-17T12:49:44.174Z,3.85
2022-09-17T12:52:29.057Z,4.72
2022-09-17T12:55:25.251Z,4.13
2022-09-17T12:58:28.603Z,3.25
2022-09-17T13:01:11.337Z,3.88
2022-09-17T13:03:46.481Z,3.20
2022-09-17T13:06:41.268Z,3.60
2022-09-17T13:09:40.090Z,3.08
2022-09-17T13:12:12.967Z,2.55
2022-09-17T13:15:03.696Z,2.65
2022-09-17T13:17:39.547Z,2.65
2022-09-17T13:20:22.012Z,2.20
2022-09-17T13:22:52.179Z,2.25
2022-09-17T13:25:21.639Z,1.92
2022-09-17T13:27:51.094Z,2.30
2022-09-17T13:30:19.520Z,2.13
2022-09-17T13:32:48.914Z,1.80
2022-09-17T13:35:15.843Z,1.60
2022-09-17T13:37:59.955Z,1.10
2022-09-17T13:40:35.717Z,1.33
2022-09-17T13:43:08.508Z,1.42
2022-09-17T13:46:01.229Z,3.28
2022-09-17T13:48:34.971Z,1.95
2022-09-17T13:51:30.763Z,2.58
2022-09-17T13:54:04.128Z,1.73
2022-09-17T13:56:46.331Z,1.65
2022-09-17T13:59:21.088Z,1.52
2022-09-17T14:01:59.797Z,1.58
2022-09-17T14:04:33.976Z,1.70
2022-09-17T14:07:01.045Z,1.30
2022-09-17T14:09:36.061Z,1.20
2022-09-17T14:12:51.192Z,1.20
2022-09-17T14:15:54.192Z,1.30
2022-09-17T14:18:30.054Z,0.93
2022-09-17T14:21:25.226Z,0.98
2022-09-17T14:23:57.839Z,1.08
2022-09-17T14:26:59.833Z,0.93
2022-09-17T14:29:50.033Z,1.10
2022-09-17T14:32:21.654Z,1.10
2022-09-17T14:34:50.048Z,0.80
2022-09-17T14:37:20.964Z,0.60
2022-09-17T14:39:49.506Z,0.60
2022-09-17T14:42:29.032Z,0.70
2022-09-17T14:45:02.709Z,0.70
2022-09-17T14:47:29.699Z,0.70
2022-09-17T14:50:26.275Z,0.77
2022-09-17T14:52:54.663Z,0.57
2022-09-17T14:55:26.760Z,0.70
2022-09-17T14:57:59.224Z,0.60
2022-09-17T15:00:35.687Z,0.80
2022-09-17T15:03:02.803Z,1.48
2022-09-17T15:05:32.139Z,3.80
2022-09-17T15:08:12.031Z,3.35
2022-09-17T15:10:52.227Z,4.78
2022-09-17T15:13:27.238Z,3.90
2022-09-17T15:16:17.227Z,4.47
2022-09-17T15:18:55.495Z,3.85
2022-09-17T15:21:35.708Z,2.85
2022-09-17T15:24:38.148Z,2.97
2022-09-17T15:27:13.371Z,1.85
2022-09-17T15:29:44.508Z,1.75
2022-09-17T15:34:42.922Z,1.88
2022-09-17T15:37:19.303Z,1.85
2022-09-17T15:39:52.398Z,1.70
2022-09-17T15:42:24.150Z,1.63
2022-09-17T15:44:51.065Z,1.45
2022-09-17T15:47:39.256Z,1.27
2022-09-17T15:50:21.101Z,1.40
2022-09-17T15:52:48.994Z,1.42
2022-09-17T15:55:36.698Z,1.10
2022-09-17T15:58:19.511Z,1.35
2022-09-17T16:00:46.438Z,0.98
2022-09-17T16:03:41.053Z,1.08
2022-09-17T16:06:20.198Z,0.95
2022-09-17T16:08:49.451Z,0.80
2022-09-17T16:11:20.832Z,0.90
2022-09-17T16:13:52.264Z,1.00
2022-09-17T16:16:38.610Z,1.10
2022-09-17T16:19:08.731Z,1.17
2022-09-17T16:21:36.234Z,0.80
2022-09-17T16:24:03.141Z,0.90
2022-09-17T16:26:32.857Z,0.90
2022-09-17T16:29:15.561Z,0.75
2022-09-17T16:31:42.652Z,0.70
2022-09-17T16:34:09.848Z,0.88
2022-09-17T16:36:36.821Z,0.57
2022-09-17T16:39:05.443Z,0.50
2022-09-17T16:41:32.739Z,0.63
2022-09-17T16:43:59.968Z,0.80
2022-09-17T16:46:27.068Z,0.70
2022-09-17T16:48:53.983Z,0.60
2022-09-17T16:51:20.919Z,0.43
2022-09-17T16:53:48.005Z,0.73
2022-09-17T16:56:16.023Z,0.63
2022-09-17T16:58:43.315Z,0.68
2022-09-17T17:01:16.081Z,0.75
2022-09-17T17:03:45.718Z,0.40
2022-09-17T17:06:17.894Z,0.50
2022-09-17T17:08:45.069Z,0.52
2022-09-17T17:11:12.601Z,0.80
2022-09-17T17:13:39.559Z,0.55
2022-09-17T17:16:14.684Z,0.60
2022-09-17T17:18:45.510Z,0.80
2022-09-17T17:21:13.995Z,0.88
2022-09-17T17:23:43.895Z,0.30
2022-09-17T17:26:10.956Z,0.60
2022-09-17T17:28:38.375Z,0.50
2022-09-17T17:31:06.806Z,0.32
2022-09-17T17:33:33.969Z,0.60
2022-09-17T17:36:07.564Z,0.50
2022-09-17T17:38:35.878Z,0.73
2022-09-17T17:41:10.011Z,0.60
2022-09-17T17:43:37.236Z,0.80
2022-09-17T17:46:12.216Z,0.70
2022-09-17T17:48:39.251Z,0.50
2022-09-17T17:51:08.737Z,0.60
2022-09-17T17:53:36.457Z,0.50
2022-09-17T17:56:08.190Z,0.40
2022-09-17T17:58:36.254Z,0.40
2022-09-17T18:01:24.064Z,0.60
2022-09-17T18:03:51.067Z,0.50
2022-09-17T18:06:18.047Z,0.55
2022-09-17T18:08:45.022Z,0.50
2022-09-17T18:11:12.516Z,0.52
2022-09-17T18:13:40.258Z,0.50
2022-09-17T18:16:09.464Z,0.55
2022-09-17T18:18:43.707Z,0.70
2022-09-17T18:21:16.244Z,0.80
2022-09-17T18:23:43.915Z,0.50
2022-09-17T18:26:13.867Z,0.52
2022-09-17T18:28:41.736Z,0.80
2022-09-17T18:31:17.592Z,0.70
2022-09-17T18:33:44.852Z,0.82
2022-09-17T18:36:12.069Z,0.68
2022-09-17T18:38:41.831Z,0.70
2022-09-17T18:41:13.996Z,0.50
2022-09-17T18:43:41.128Z,0.50
2022-09-17T18:46:08.070Z,0.40
2022-09-17T18:48:36.655Z,0.43
2022-09-17T18:51:12.688Z,0.52
2022-09-17T18:53:39.877Z,0.60
2022-09-17T18:56:19.314Z,0.50
2022-09-17T18:58:47.692Z,0.60
2022-09-17T19:01:15.257Z,0.50
2022-09-17T19:03:42.491Z,0.38
2022-09-17T19:06:11.635Z,0.50
2022-09-17T19:08:39.427Z,1.02
2022-09-17T19:11:06.862Z,0.30
2022-09-17T19:13:39.429Z,0.52
2022-09-17T19:16:08.261Z,0.50
2022-09-17T19:18:37.293Z,0.40
2022-09-17T19:21:07.059Z,0.52
2022-09-17T19:23:34.695Z,0.40
2022-09-17T19:26:07.414Z,0.40
2022-09-17T19:28:35.981Z,0.50
2022-09-17T19:31:17.460Z,0.52
2022-09-17T19:33:45.417Z,0.40
2022-09-17T19:36:15.503Z,0.35
2022-09-17T19:38:43.877Z,0.43
2022-09-17T19:41:13.711Z,0.25
2022-09-17T19:43:42.302Z,0.30
2022-09-17T19:46:15.441Z,0.40
2022-09-17T19:48:56.844Z,0.40
2022-09-17T19:51:26.308Z,0.30
2022-09-17T19:53:54.476Z,0.40
2022-09-17T19:56:24.781Z,0.43
2022-09-17T19:58:53.833Z,0.32
2022-09-17T20:01:21.772Z,0.43
2022-09-17T20:03:49.805Z,0.50
2022-09-17T20:06:24.743Z,0.35
2022-09-17T20:08:54.214Z,0.30
2022-09-17T20:11:24.765Z,0.43
2022-09-17T20:13:58.904Z,0.40
2022-09-17T20:16:27.780Z,0.40
2022-09-17T20:18:57.052Z,0.30
2022-09-17T20:21:28.833Z,0.30
2022-09-17T20:23:57.049Z,0.30
2022-09-17T20:26:25.847Z,0.28
2022-09-17T20:28:58.319Z,0.63
2022-09-17T20:31:28.359Z,0.50
2022-09-17T20:34:01.882Z,0.25
2022-09-17T20:36:36.813Z,0.30
2022-09-17T20:39:21.091Z,0.30
2022-09-17T20:41:51.816Z,0.40
2022-09-17T20:44:19.989Z,0.50
2022-09-17T20:46:48.125Z,0.30
2022-09-17T20:49:16.421Z,0.30
2022-09-17T20:51:43.831Z,0.45
2022-09-17T20:54:11.473Z,0.30
2022-09-17T20:56:39.529Z,0.30
2022-09-17T20:59:19.199Z,0.40
2022-09-17T21:01:50.197Z,0.30
2022-09-17T21:06:55.291Z,0.30
2022-09-17T21:09:23.016Z,0.20
2022-09-17T21:11:52.884Z,0.30
2022-09-17T21:14:24.263Z,0.28
2022-09-17T21:16:52.159Z,0.28
2022-09-17T21:19:20.981Z,0.25
2022-09-17T21:21:52.303Z,0.30
2022-09-17T21:24:19.769Z,0.30
2022-09-17T21:26:48.976Z,0.20
2022-09-17T21:29:18.149Z,0.30
2022-09-17T21:31:45.767Z,0.30
2022-09-17T21:34:14.825Z,0.40
2022-09-17T21:36:45.053Z,0.28
2022-09-17T21:39:16.479Z,0.30
2022-09-17T21:41:53.201Z,0.40
2022-09-17T21:44:21.969Z,0.20
2022-09-17T21:46:50.478Z,0.30
2022-09-17T21:49:19.368Z,0.40
2022-09-17T21:51:46.579Z,0.57
2022-09-17T21:54:17.272Z,0.30
2022-09-17T21:56:45.689Z,0.30
2022-09-17T21:59:15.300Z,0.45
2022-09-17T22:01:47.056Z,0.35
2022-09-17T22:04:20.933Z,0.50
2022-09-17T22:06:50.503Z,0.40
2022-09-17T22:09:24.734Z,0.30
2022-09-17T22:11:53.902Z,0.47
2022-09-17T22:14:24.251Z,0.40
2022-09-17T22:16:54.106Z,0.50
2022-09-17T22:19:23.401Z,0.50
2022-09-17T22:21:53.526Z,0.38
2022-09-17T22:24:24.738Z,0.35
2022-09-17T22:26:57.334Z,0.50
2022-09-17T22:29:27.078Z,0.50
2022-09-17T22:31:54.588Z,0.55
2022-09-17T22:34:23.482Z,0.68
2022-09-17T22:36:52.229Z,0.50
2022-09-17T22:39:21.992Z,0.50
2022-09-17T22:41:50.618Z,0.82
2022-09-17T22:44:19.587Z,0.40
2022-09-17T22:46:48.904Z,0.43
2022-09-17T22:49:17.041Z,0.70
2022-09-17T22:51:45.502Z,0.40
2022-09-17T22:54:15.139Z,0.50
2022-09-17T22:56:43.187Z,0.60
2022-09-17T22:59:10.533Z,0.50
2022-09-17T23:01:39.532Z,0.50
2022-09-17T23:04:06.697Z,0.40
2022-09-17T23:06:38.394Z,0.45
2022-09-17T23:09:06.374Z,0.40
2022-09-17T23:11:36.179Z,0.63
2022-09-17T23:14:06.218Z,0.32
2022-09-17T23:16:38.518Z,0.43
2022-09-17T23:19:05.622Z,0.40
2022-09-17T23:21:32.611Z,0.43
2022-09-17T23:23:59.605Z,0.38
2022-09-17T23:26:27.286Z,0.30
2022-09-17T23:28:54.417Z,0.35
2022-09-17T23:31:25.356Z,0.43
2022-09-17T23:33:53.083Z,0.30
2022-09-17T23:36:28.594Z,0.28
2022-09-17T23:38:57.392Z,0.45
2022-09-17T23:41:28.329Z,0.30
2022-09-17T23:43:57.259Z,0.50
2022-09-17T23:46:26.052Z,0.30
2022-09-17T23:48:53.745Z,0.30
2022-09-17T23:51:22.008Z,0.30
2022-09-17T23:53:49.526Z,0.30
2022-09-17T23:56:21.441Z,0.35
2022-09-17T23:58:49.355Z,0.20
